Time;durP1;ratioP1;P1;durP2;ratioP2;P2;SDS_P1;SDS_P2;PMS_P1;PMS_P2;Temp;Humidity;BMP_temperature;BMP_pressure;BME280_temperature;BME280_humidity;BME280_pressure;Samples;Min_cycle;Max_cycle;Signal;HPM_P1;HPM_P2
2022/10/14 00:01:36;;;;;;;14.30;12.80;;;10.30;99.90;;;;;;5053260;28;20202;-79
2022/10/14 00:04:03;;;;;;;14.17;12.67;;;10.20;99.90;;;;;;5052853;28;20186;-76
2022/10/14 00:06:31;;;;;;;15.27;13.60;;;10.30;99.90;;;;;;5052835;28;20285;-79
2022/10/14 00:09:01;;;;;;;17.63;15.07;;;10.20;99.90;;;;;;5053227;28;20190;-77
2022/10/14 00:11:31;;;;;;;16.60;14.90;;;10.20;99.90;;;;;;5052535;28;20575;-79
2022/10/14 00:14:03;;;;;;;18.30;16.40;;;10.20;99.90;;;;;;5052747;28;20201;-77
2022/10/14 00:16:34;;;;;;;17.03;15.23;;;10.20;99.90;;;;;;5053468;28;20252;-78
2022/10/14 00:19:01;;;;;;;16.43;14.73;;;10.10;99.90;;;;;;5052473;28;20321;-77
2022/10/14 00:21:29;;;;;;;15.83;14.10;;;10.10;99.90;;;;;;5052784;28;20707;-81
2022/10/14 00:23:57;;;;;;;17.47;15.57;;;10.10;99.90;;;;;;5052524;28;20264;-79
2022/10/14 00:26:27;;;;;;;24.37;19.50;;;10.10;99.90;;;;;;5051185;28;20186;-78
2022/10/14 00:28:54;;;;;;;17.30;15.33;;;10.00;99.90;;;;;;5052430;28;20217;-80
2022/10/14 00:31:23;;;;;;;18.10;16.07;;;9.90;99.90;;;;;;5053647;28;20197;-80
2022/10/14 00:33:50;;;;;;;18.33;16.33;;;9.90;99.90;;;;;;5054124;28;20228;-78
2022/10/14 00:36:21;;;;;;;20.20;17.30;;;9.90;99.90;;;;;;5053679;28;20636;-81
2022/10/14 00:38:48;;;;;;;17.97;15.27;;;9.90;99.90;;;;;;5053005;28;20220;-81
2022/10/14 00:41:18;;;;;;;18.03;15.57;;;9.90;99.90;;;;;;5053763;28;20281;-81
2022/10/14 00:43:59;;;;;;;19.30;17.30;;;9.90;99.90;;;;;;5053555;28;20208;-81
2022/10/14 00:46:29;;;;;;;16.83;15.07;;;9.90;99.90;;;;;;5053102;28;20598;-79
2022/10/14 00:48:58;;;;;;;20.60;17.20;;;9.90;99.90;;;;;;5053126;28;20469;-81
2022/10/14 00:51:25;;;;;;;17.73;16.00;;;9.90;99.90;;;;;;5052834;28;20197;-81
2022/10/14 00:53:52;;;;;;;19.10;17.10;;;9.90;99.90;;;;;;5061325;28;20201;-80
2022/10/14 00:56:24;;;;;;;19.60;17.50;;;10.00;99.90;;;;;;5073318;28;20327;-81
2022/10/14 00:58:52;;;;;;;16.93;15.13;;;10.00;99.90;;;;;;5073241;28;20213;-81
2022/10/14 01:01:18;;;;;;;17.83;16.03;;;9.90;99.90;;;;;;5072981;28;20232;-82
2022/10/14 01:03:47;;;;;;;17.60;15.63;;;9.90;99.90;;;;;;5073464;28;20213;-81
2022/10/14 01:06:22;;;;;;;18.63;16.63;;;9.90;99.90;;;;;;5072144;28;20201;-80
2022/10/14 01:08:57;;;;;;;16.17;14.27;;;9.90;99.90;;;;;;5073345;28;20291;-81
2022/10/14 01:11:32;;;;;;;17.47;15.63;;;9.90;99.90;;;;;;5073242;28;20603;-81
2022/10/14 01:14:09;;;;;;;19.10;17.10;;;9.90;99.90;;;;;;5067174;28;20219;-80
2022/10/14 01:16:45;;;;;;;17.70;15.90;;;9.90;99.90;;;;;;5052859;28;20500;-80
2022/10/14 01:19:32;;;;;;;20.27;17.83;;;9.90;99.90;;;;;;5052493;28;20210;-77
2022/10/14 01:22:04;;;;;;;26.53;21.40;;;9.90;99.90;;;;;;5052008;28;20212;-80
2022/10/14 01:25:00;;;;;;;29.27;23.67;;;9.90;99.90;;;;;;5052647;28;20194;-80
2022/10/14 01:27:54;;;;;;;26.63;22.93;;;9.90;99.90;;;;;;5051329;28;20206;-80
2022/10/14 01:30:23;;;;;;;24.60;20.40;;;10.00;99.90;;;;;;5036290;28;20368;-81
2022/10/14 01:33:04;;;;;;;21.83;18.83;;;10.00;99.90;;;;;;5053268;28;20198;-81
2022/10/14 01:35:44;;;;;;;21.20;18.57;;;10.00;99.90;;;;;;5052302;28;20335;-81
2022/10/14 01:38:14;;;;;;;19.23;17.13;;;10.00;99.90;;;;;;5055433;28;20216;-81
2022/10/14 01:40:48;;;;;;;19.10;17.20;;;10.00;99.90;;;;;;5057261;28;20286;-81
2022/10/14 01:43:18;;;;;;;23.53;21.00;;;10.00;99.90;;;;;;5056056;28;20602;-80
2022/10/14 01:45:48;;;;;;;25.67;22.87;;;10.10;99.90;;;;;;5056299;28;20240;-82
2022/10/14 01:48:18;;;;;;;22.27;19.97;;;10.10;99.90;;;;;;5056408;28;20217;-81
2022/10/14 01:50:47;;;;;;;21.37;19.03;;;10.10;99.90;;;;;;5056479;28;20244;-79
2022/10/14 01:53:19;;;;;;;19.13;17.13;;;10.10;99.90;;;;;;5056328;28;20198;-80
2022/10/14 01:55:48;;;;;;;22.10;19.80;;;10.10;99.90;;;;;;5055791;28;20241;-78
2022/10/14 01:58:16;;;;;;;19.23;17.23;;;10.20;99.90;;;;;;5055906;28;20209;-79
2022/10/14 02:00:46;;;;;;;19.20;17.20;;;10.20;99.90;;;;;;5055987;28;20628;-80
2022/10/14 02:03:14;;;;;;;19.63;17.10;;;10.20;99.90;;;;;;5055233;28;20201;-78
2022/10/14 02:05:46;;;;;;;19.03;17.13;;;10.20;99.90;;;;;;5056004;28;20210;-81
2022/10/14 02:08:20;;;;;;;19.70;17.67;;;10.20;99.90;;;;;;5056359;28;20187;-81
2022/10/14 02:11:04;;;;;;;19.87;17.87;;;10.20;99.90;;;;;;5056433;28;20640;-79
2022/10/14 02:13:51;;;;;;;17.57;15.87;;;10.20;99.90;;;;;;5055719;28;20205;-76
2022/10/14 02:16:25;;;;;;;18.93;16.93;;;10.20;99.90;;;;;;5055664;28;20259;-81
2022/10/14 02:19:01;;;;;;;17.23;15.43;;;10.10;99.90;;;;;;5055476;28;20205;-82
2022/10/14 02:21:34;;;;;;;16.37;14.77;;;10.10;99.90;;;;;;5054916;28;20214;-78
2022/10/14 02:24:05;;;;;;;17.33;15.57;;;10.00;99.90;;;;;;5054569;28;20197;-81
2022/10/14 02:26:33;;;;;;;16.97;15.07;;;10.00;99.90;;;;;;5055252;28;20534;-81
2022/10/14 02:29:03;;;;;;;16.00;14.37;;;10.10;99.90;;;;;;5054696;28;20204;-81
2022/10/14 02:31:32;;;;;;;20.93;18.40;;;10.00;99.90;;;;;;5055048;28;20200;-82
2022/10/14 02:34:04;;;;;;;21.37;18.93;;;10.00;99.90;;;;;;5056218;28;20201;-81
2022/10/14 02:36:32;;;;;;;19.93;17.37;;;10.00;99.90;;;;;;5055274;28;20184;-79
2022/10/14 02:39:01;;;;;;;20.03;17.93;;;10.00;99.90;;;;;;5055199;28;20214;-81
2022/10/14 02:41:33;;;;;;;19.20;16.83;;;10.00;99.90;;;;;;5054962;28;20221;-81
2022/10/14 02:44:00;;;;;;;20.67;17.80;;;10.00;99.90;;;;;;5054130;28;20397;-79
2022/10/14 02:46:28;;;;;;;21.00;16.90;;;10.00;99.90;;;;;;5058230;28;20205;-78
2022/10/14 02:48:55;;;;;;;20.77;17.93;;;10.10;99.90;;;;;;5073144;28;20202;-78
2022/10/14 02:51:23;;;;;;;17.97;15.87;;;10.00;99.90;;;;;;5074048;28;20197;-77
2022/10/14 02:53:50;;;;;;;18.50;16.23;;;10.00;99.90;;;;;;5059040;28;20217;-78
2022/10/14 02:56:18;;;;;;;27.60;21.20;;;10.10;99.90;;;;;;5054086;28;20595;-77
2022/10/14 02:58:45;;;;;;;30.30;22.23;;;10.10;99.90;;;;;;5053843;28;20226;-77
2022/10/14 03:01:12;;;;;;;29.03;21.63;;;10.10;99.90;;;;;;5054271;28;20236;-78
2022/10/14 03:03:39;;;;;;;30.40;22.27;;;10.10;99.90;;;;;;5053939;28;20229;-76
2022/10/14 03:06:06;;;;;;;32.57;22.67;;;10.20;99.90;;;;;;5053164;28;20202;-78
2022/10/14 03:08:35;;;;;;;31.57;23.33;;;10.20;99.90;;;;;;5053626;28;20204;-78
2022/10/14 03:11:02;;;;;;;27.53;20.83;;;10.30;99.90;;;;;;5053649;28;20186;-79
2022/10/14 03:13:28;;;;;;;31.93;25.27;;;10.30;99.90;;;;;;5053112;28;20210;-77
2022/10/14 03:15:55;;;;;;;37.17;27.97;;;10.30;99.90;;;;;;5053413;28;20194;-77
2022/10/14 03:18:22;;;;;;;34.37;26.33;;;10.30;99.90;;;;;;5053366;28;20317;-77
2022/10/14 03:20:49;;;;;;;42.17;30.03;;;10.40;99.90;;;;;;5053229;28;20515;-78
2022/10/14 03:23:16;;;;;;;35.63;26.80;;;10.40;99.90;;;;;;5054003;28;20484;-78
2022/10/14 03:25:45;;;;;;;35.87;26.67;;;10.40;99.90;;;;;;5053643;28;20209;-79
2022/10/14 03:28:12;;;;;;;41.13;28.83;;;10.40;99.90;;;;;;5052745;28;20198;-78
2022/10/14 03:30:40;;;;;;;42.93;30.17;;;10.40;99.90;;;;;;5052975;28;20673;-77
2022/10/14 03:33:07;;;;;;;45.10;32.93;;;10.50;99.90;;;;;;5053127;28;20638;-78
2022/10/14 03:35:34;;;;;;;43.80;33.13;;;10.50;99.90;;;;;;5053113;28;20198;-78
2022/10/14 03:38:02;;;;;;;47.40;33.10;;;10.50;99.90;;;;;;5053094;28;20190;-79
2022/10/14 03:40:29;;;;;;;53.10;36.53;;;10.50;99.90;;;;;;5069269;28;20695;-77
2022/10/14 03:42:59;;;;;;;41.87;30.63;;;10.60;99.90;;;;;;5072538;28;20280;-77
2022/10/14 03:45:27;;;;;;;40.27;30.20;;;10.60;99.90;;;;;;5073066;28;20201;-78
2022/10/14 03:47:54;;;;;;;39.87;29.10;;;10.60;99.90;;;;;;5071862;28;20239;-79
2022/10/14 03:50:21;;;;;;;43.33;32.17;;;10.70;99.90;;;;;;5052724;28;20192;-79
2022/10/14 03:52:47;;;;;;;46.90;34.90;;;10.60;99.90;;;;;;5052931;28;20205;-79
2022/10/14 03:55:14;;;;;;;48.87;35.03;;;10.70;99.90;;;;;;5053188;28;20293;-79
2022/10/14 03:57:41;;;;;;;50.80;34.57;;;10.70;99.90;;;;;;5052651;28;20229;-78
2022/10/14 04:00:11;;;;;;;52.27;35.40;;;10.70;99.90;;;;;;5053181;28;20883;-80
2022/10/14 04:02:38;;;;;;;46.37;31.83;;;10.80;99.90;;;;;;5053133;28;20302;-81
2022/10/14 04:05:06;;;;;;;47.17;32.73;;;10.80;99.90;;;;;;5053615;28;20256;-81
2022/10/14 04:07:32;;;;;;;48.73;33.53;;;10.80;99.90;;;;;;5053616;28;20205;-81
2022/10/14 04:09:59;;;;;;;47.73;33.03;;;10.90;99.90;;;;;;5053426;28;20515;-80
2022/10/14 04:12:26;;;;;;;65.83;35.67;;;10.90;99.90;;;;;;5054169;28;20206;-81
2022/10/14 04:14:55;;;;;;;42.70;29.87;;;10.90;99.90;;;;;;5054099;28;20208;-81
2022/10/14 04:17:24;;;;;;;47.50;31.47;;;10.90;99.90;;;;;;5053200;28;20205;-80
2022/10/14 04:19:51;;;;;;;45.47;30.57;;;10.90;99.90;;;;;;5053678;28;20217;-82
2022/10/14 04:22:18;;;;;;;48.70;33.10;;;11.00;99.90;;;;;;5053570;28;20206;-77
2022/10/14 04:24:45;;;;;;;46.27;31.23;;;11.00;99.90;;;;;;5052177;28;20186;-82
2022/10/14 04:27:12;;;;;;;48.03;32.50;;;11.00;99.90;;;;;;5053723;28;20201;-78
2022/10/14 04:29:39;;;;;;;49.67;34.60;;;11.00;99.90;;;;;;5052959;28;20301;-81
2022/10/14 04:32:06;;;;;;;50.43;33.70;;;11.00;99.90;;;;;;5052733;28;20202;-78
2022/10/14 04:34:34;;;;;;;50.50;34.50;;;11.10;99.90;;;;;;5053642;28;20292;-80
2022/10/14 04:37:01;;;;;;;52.90;37.27;;;11.10;99.90;;;;;;5053033;28;20205;-80
2022/10/14 04:39:27;;;;;;;49.90;33.87;;;11.10;99.90;;;;;;5052843;28;20214;-81
2022/10/14 04:41:54;;;;;;;53.33;36.30;;;11.10;99.90;;;;;;5053343;28;20211;-79
2022/10/14 04:44:21;;;;;;;55.13;35.27;;;11.10;99.90;;;;;;5052644;28;20601;-80
2022/10/14 04:46:48;;;;;;;54.90;35.93;;;11.20;99.90;;;;;;5053311;28;20285;-83
2022/10/14 04:49:15;;;;;;;56.83;36.83;;;11.20;99.90;;;;;;5053277;28;20208;-79
2022/10/14 04:51:43;;;;;;;55.27;36.03;;;11.20;99.90;;;;;;5053335;28;20193;-81
2022/10/14 04:54:10;;;;;;;59.03;36.73;;;11.20;99.90;;;;;;5053233;28;20205;-79
2022/10/14 04:56:38;;;;;;;55.83;36.53;;;11.30;99.90;;;;;;5053199;28;20650;-81
2022/10/14 04:59:05;;;;;;;53.50;35.63;;;11.30;99.90;;;;;;5053601;28;20307;-81
2022/10/14 05:01:31;;;;;;;52.70;35.63;;;11.30;99.90;;;;;;5053503;28;20209;-81
2022/10/14 05:03:58;;;;;;;49.83;33.83;;;11.30;99.90;;;;;;5053570;28;20220;-81
2022/10/14 05:06:25;;;;;;;64.97;40.77;;;11.30;99.90;;;;;;5053185;28;20201;-81
2022/10/14 05:08:54;;;;;;;60.77;40.37;;;11.40;99.90;;;;;;5053813;28;20197;-81
2022/10/14 05:11:21;;;;;;;53.93;38.30;;;11.30;99.90;;;;;;5053122;28;20202;-80
2022/10/14 05:13:48;;;;;;;58.43;41.40;;;11.40;99.90;;;;;;5056295;28;20202;-78
2022/10/14 05:16:15;;;;;;;62.03;42.00;;;11.40;99.90;;;;;;5056400;28;20216;-82
2022/10/14 05:18:42;;;;;;;61.70;39.87;;;11.40;99.90;;;;;;5056331;28;20660;-82
2022/10/14 05:21:08;;;;;;;61.13;41.60;;;11.40;99.90;;;;;;5056319;28;20281;-79
2022/10/14 05:23:35;;;;;;;69.67;46.50;;;11.40;99.90;;;;;;5056292;28;20206;-78
2022/10/14 05:26:03;;;;;;;68.40;45.63;;;11.50;99.90;;;;;;5056418;28;20202;-80
2022/10/14 05:28:30;;;;;;;59.63;41.23;;;11.50;99.90;;;;;;5054987;28;20613;-81
2022/10/14 05:30:57;;;;;;;72.17;47.67;;;11.50;99.90;;;;;;5056712;28;20198;-80
2022/10/14 05:33:24;;;;;;;61.73;42.40;;;11.50;99.90;;;;;;5056737;28;20289;-82
2022/10/14 05:35:51;;;;;;;69.80;44.23;;;11.50;99.90;;;;;;5056766;28;20299;-81
2022/10/14 05:38:18;;;;;;;66.33;42.43;;;11.50;99.90;;;;;;5056634;28;20229;-80
2022/10/14 05:40:52;;;;;;;60.00;39.77;;;11.50;99.90;;;;;;5056231;28;20225;-78
2022/10/14 05:43:20;;;;;;;62.47;39.07;;;11.50;99.90;;;;;;5056338;28;20205;-79
2022/10/14 05:45:47;;;;;;;64.80;38.93;;;11.60;99.90;;;;;;5056429;28;20547;-80
2022/10/14 05:48:14;;;;;;;60.03;38.93;;;11.60;99.90;;;;;;5055787;28;20198;-82
2022/10/14 05:50:42;;;;;;;58.97;38.87;;;11.60;99.90;;;;;;5056576;28;20289;-81
2022/10/14 05:53:09;;;;;;;62.93;39.73;;;11.60;99.90;;;;;;5056201;28;20220;-81
2022/10/14 05:55:36;;;;;;;59.27;37.97;;;11.60;99.90;;;;;;5055578;28;20538;-77
2022/10/14 05:58:03;;;;;;;55.30;36.20;;;11.60;99.90;;;;;;5076221;28;20287;-81
2022/10/14 06:00:31;;;;;;;59.30;36.40;;;11.60;99.90;;;;;;5075993;28;20236;-78
2022/10/14 06:02:58;;;;;;;55.67;33.93;;;11.60;99.90;;;;;;5075297;28;20735;-78
2022/10/14 06:05:25;;;;;;;53.17;32.73;;;11.60;99.90;;;;;;5076145;28;20197;-82
2022/10/14 06:07:52;;;;;;;55.67;35.33;;;11.60;99.90;;;;;;5076300;28;20204;-77
2022/10/14 06:10:19;;;;;;;55.50;34.63;;;11.60;99.90;;;;;;5074639;28;20201;-82
2022/10/14 06:12:46;;;;;;;51.07;33.33;;;11.70;99.90;;;;;;5075777;28;20515;-79
2022/10/14 06:15:12;;;;;;;53.93;33.33;;;11.70;99.90;;;;;;5075092;28;20284;-78
2022/10/14 06:17:41;;;;;;;43.93;28.70;;;11.70;99.90;;;;;;5061972;28;20202;-77
2022/10/14 06:20:08;;;;;;;42.07;28.10;;;11.70;99.90;;;;;;5054343;28;20224;-78
2022/10/14 06:22:35;;;;;;;46.87;29.73;;;11.70;99.90;;;;;;5054121;28;20210;-77
2022/10/14 06:25:02;;;;;;;44.10;30.07;;;11.70;99.90;;;;;;5052383;28;20292;-77
2022/10/14 06:27:29;;;;;;;48.53;30.30;;;11.70;99.90;;;;;;5054756;28;20202;-77
2022/10/14 06:29:56;;;;;;;49.70;30.97;;;11.80;99.90;;;;;;5053266;28;20228;-77
2022/10/14 06:32:23;;;;;;;42.47;28.87;;;11.80;99.90;;;;;;5054006;28;20198;-78
2022/10/14 06:34:51;;;;;;;48.17;30.17;;;11.70;99.90;;;;;;5053940;28;20771;-78
2022/10/14 06:37:18;;;;;;;49.53;31.37;;;11.80;99.90;;;;;;5053348;28;20687;-76
2022/10/14 06:39:45;;;;;;;50.33;30.93;;;11.80;99.90;;;;;;5053800;28;20214;-77
2022/10/14 06:42:11;;;;;;;48.07;29.43;;;11.80;99.90;;;;;;5054181;28;20202;-79
2022/10/14 06:44:38;;;;;;;46.23;30.47;;;11.80;99.90;;;;;;5053160;28;20285;-78
2022/10/14 06:47:06;;;;;;;47.87;30.90;;;11.80;99.90;;;;;;5053944;28;20198;-79
2022/10/14 06:49:33;;;;;;;50.87;30.83;;;11.80;99.90;;;;;;5053676;28;20198;-78
2022/10/14 06:52:02;;;;;;;44.73;28.17;;;11.90;99.90;;;;;;5052793;28;20280;-81
2022/10/14 06:54:29;;;;;;;45.37;27.13;;;11.90;99.90;;;;;;5054367;28;20194;-78
2022/10/14 06:56:55;;;;;;;47.87;28.23;;;11.90;99.90;;;;;;5054060;28;20406;-79
2022/10/14 06:59:22;;;;;;;41.80;25.07;;;11.90;99.90;;;;;;5053811;28;20324;-80
2022/10/14 07:01:51;;;;;;;39.03;24.17;;;11.90;99.90;;;;;;5060886;28;20205;-78
2022/10/14 07:04:18;;;;;;;39.20;25.20;;;12.00;99.90;;;;;;5072755;28;20549;-78
2022/10/14 07:06:45;;;;;;;39.53;25.20;;;12.00;99.90;;;;;;5072824;28;20505;-79
2022/10/14 07:09:13;;;;;;;35.17;21.87;;;12.00;99.90;;;;;;5066874;28;20203;-79
2022/10/14 07:11:41;;;;;;;40.10;24.83;;;12.00;99.90;;;;;;5067732;28;20205;-77
2022/10/14 07:14:08;;;;;;;35.27;22.47;;;12.10;99.90;;;;;;5071573;28;20275;-77
2022/10/14 07:16:35;;;;;;;35.33;21.67;;;12.10;99.90;;;;;;5071066;28;20205;-77
2022/10/14 07:19:02;;;;;;;31.83;20.10;;;12.10;99.90;;;;;;5063059;28;20208;-77
2022/10/14 07:21:29;;;;;;;31.50;19.90;;;12.10;99.90;;;;;;5062316;28;20671;-81
2022/10/14 07:23:56;;;;;;;29.43;18.97;;;12.20;99.90;;;;;;5055861;28;20252;-78
2022/10/14 07:26:25;;;;;;;29.17;19.73;;;12.20;99.90;;;;;;5083419;28;20315;-78
2022/10/14 07:28:51;;;;;;;27.87;19.07;;;12.20;99.90;;;;;;5053691;28;20849;-79
2022/10/14 07:31:18;;;;;;;23.10;16.13;;;12.20;99.90;;;;;;5064351;28;20528;-80
2022/10/14 07:33:45;;;;;;;20.53;14.33;;;12.30;99.90;;;;;;5072737;28;20593;-80
2022/10/14 07:36:14;;;;;;;21.07;14.90;;;12.30;99.90;;;;;;5087249;28;20204;-83
2022/10/14 07:38:42;;;;;;;18.40;13.53;;;12.30;99.90;;;;;;5072287;28;20315;-85
2022/10/14 07:41:15;;;;;;;19.57;14.27;;;12.30;99.90;;;;;;5072098;28;20225;-81
2022/10/14 07:43:44;;;;;;;21.97;15.00;;;12.30;99.90;;;;;;5072062;28;20817;-81
2022/10/14 07:46:13;;;;;;;19.80;14.47;;;12.40;99.90;;;;;;5085334;28;20197;-81
2022/10/14 07:48:40;;;;;;;20.33;13.67;;;12.40;99.90;;;;;;5073697;28;20201;-79
2022/10/14 07:51:08;;;;;;;20.53;14.20;;;12.40;99.90;;;;;;5068619;28;20277;-79
2022/10/14 07:53:35;;;;;;;19.70;12.53;;;12.40;99.90;;;;;;5053434;28;20207;-84
2022/10/14 07:56:01;;;;;;;20.90;13.63;;;12.40;99.90;;;;;;5069753;28;20652;-84
2022/10/14 07:58:30;;;;;;;19.20;12.37;;;12.50;99.90;;;;;;5072032;28;20239;-80
2022/10/14 08:00:59;;;;;;;17.00;12.47;;;12.50;99.90;;;;;;5075438;28;20212;-79
2022/10/14 08:03:26;;;;;;;18.80;12.10;;;12.50;99.90;;;;;;5071961;28;20197;-81
2022/10/14 08:05:59;;;;;;;18.30;12.80;;;12.50;99.90;;;;;;5069652;28;20197;-79
2022/10/14 08:08:27;;;;;;;20.17;12.50;;;12.60;99.90;;;;;;5069305;28;20205;-78
2022/10/14 08:11:00;;;;;;;17.47;11.23;;;12.60;99.90;;;;;;5071149;28;20193;-77
2022/10/14 08:13:30;;;;;;;15.93;11.67;;;12.60;99.90;;;;;;5071738;28;20195;-78
2022/10/14 08:15:56;;;;;;;16.57;11.10;;;12.60;99.90;;;;;;5079967;28;20196;-77
2022/10/14 08:18:25;;;;;;;11.87;9.80;;;12.70;99.90;;;;;;5072415;28;20197;-78
2022/10/14 08:20:53;;;;;;;15.03;11.10;;;12.70;99.90;;;;;;5079376;28;20212;-85
2022/10/14 08:23:20;;;;;;;13.77;10.50;;;12.70;99.90;;;;;;5094502;28;20619;-81
2022/10/14 08:25:49;;;;;;;14.83;10.50;;;12.80;99.90;;;;;;5068772;28;20204;-78
2022/10/14 08:28:16;;;;;;;13.60;11.10;;;12.80;99.90;;;;;;5071369;28;20201;-77
2022/10/14 08:30:43;;;;;;;15.13;11.47;;;12.80;99.90;;;;;;5069587;28;20285;-78
2022/10/14 08:33:11;;;;;;;16.83;12.30;;;12.90;99.90;;;;;;5072242;28;20201;-82
2022/10/14 08:35:40;;;;;;;18.47;13.53;;;12.90;99.90;;;;;;5073436;28;20197;-79
2022/10/14 08:38:07;;;;;;;21.47;14.47;;;12.90;99.90;;;;;;5056377;28;20197;-85
2022/10/14 08:40:49;;;;;;;23.03;14.73;;;13.00;99.90;;;;;;5054379;28;20228;-85
2022/10/14 08:43:22;;;;;;;22.80;14.60;;;13.00;99.90;;;;;;5054498;28;20194;-86
2022/10/14 08:45:55;;;;;;;20.70;14.43;;;13.00;99.90;;;;;;5054583;28;20190;-86
2022/10/14 08:48:26;;;;;;;22.13;15.63;;;13.10;99.90;;;;;;5053826;28;20198;-85
2022/10/14 08:50:59;;;;;;;19.50;14.67;;;13.20;99.90;;;;;;5054918;28;20201;-87
2022/10/14 08:53:30;;;;;;;25.37;16.73;;;13.20;99.90;;;;;;5054583;28;20594;-82
2022/10/14 08:56:00;;;;;;;21.07;14.93;;;13.20;99.90;;;;;;5053645;28;20249;-80
2022/10/14 08:58:30;;;;;;;22.30;14.47;;;13.20;99.90;;;;;;5053535;28;20240;-84
2022/10/14 09:01:01;;;;;;;20.90;14.67;;;13.20;99.90;;;;;;5053742;28;20300;-84
2022/10/14 09:03:32;;;;;;;21.47;14.83;;;13.30;99.90;;;;;;5052845;28;20202;-86
2022/10/14 09:06:03;;;;;;;21.07;14.30;;;13.30;99.90;;;;;;5054089;28;20207;-87
2022/10/14 09:08:37;;;;;;;20.63;14.37;;;13.30;99.90;;;;;;5054156;28;20288;-86
2022/10/14 09:11:04;;;;;;;22.70;15.37;;;13.30;99.90;;;;;;5053794;28;20208;-86
2022/10/14 09:13:36;;;;;;;22.67;14.67;;;13.40;99.90;;;;;;5053671;28;20303;-83
2022/10/14 09:16:09;;;;;;;22.33;14.83;;;13.40;99.90;;;;;;5053864;28;20213;-85
2022/10/14 09:18:40;;;;;;;22.20;15.30;;;13.40;99.90;;;;;;5058346;28;20204;-85
2022/10/14 09:21:24;;;;;;;24.63;16.63;;;13.40;99.90;;;;;;5074230;28;20621;-85
2022/10/14 09:23:57;;;;;;;25.37;16.87;;;13.50;99.90;;;;;;5074085;28;20198;-85
2022/10/14 09:26:28;;;;;;;25.40;17.57;;;13.50;99.90;;;;;;5073270;28;20590;-84
2022/10/14 09:28:56;;;;;;;27.80;18.33;;;13.50;99.90;;;;;;5065168;28;20214;-82
2022/10/14 09:31:22;;;;;;;26.07;17.53;;;13.50;99.90;;;;;;5053133;28;20204;-84
2022/10/14 09:33:49;;;;;;;26.43;18.30;;;13.50;99.90;;;;;;5053195;28;20236;-84
2022/10/14 09:36:20;;;;;;;27.53;17.37;;;13.50;99.90;;;;;;5053373;28;20847;-82
2022/10/14 09:38:50;;;;;;;25.13;17.23;;;13.50;99.90;;;;;;5053294;28;20202;-87
2022/10/14 09:41:20;;;;;;;26.13;18.23;;;13.60;99.90;;;;;;5053098;28;20229;-83
2022/10/14 09:44:24;;;;;;;27.53;19.13;;;13.60;99.90;;;;;;5053733;28;20201;-85
2022/10/14 09:46:54;;;;;;;25.77;16.87;;;13.70;99.90;;;;;;5052621;28;20590;-84
2022/10/14 09:49:33;;;;;;;26.03;18.73;;;13.70;99.90;;;;;;5052419;28;20204;-80
2022/10/14 09:52:02;;;;;;;27.63;18.53;;;13.70;99.90;;;;;;5051398;28;20186;-77
2022/10/14 09:54:31;;;;;;;29.90;18.90;;;13.80;99.90;;;;;;5050745;28;20272;-78
2022/10/14 09:57:02;;;;;;;27.93;18.23;;;13.90;99.90;;;;;;5050480;28;20246;-78
2022/10/14 09:59:30;;;;;;;25.42;17.73;;;13.90;99.90;;;;;;5053784;28;20209;-78
2022/10/14 10:01:59;;;;;;;25.53;17.47;;;14.00;99.90;;;;;;5054422;28;20600;-77
2022/10/14 10:04:35;;;;;;;28.97;17.90;;;14.00;99.90;;;;;;5054484;28;20263;-78
2022/10/14 10:07:05;;;;;;;26.47;17.37;;;14.00;99.90;;;;;;5054792;28;20193;-78
2022/10/14 10:09:33;;;;;;;19.75;15.10;;;14.10;99.90;;;;;;5054095;28;20574;-78
2022/10/14 10:12:00;;;;;;;26.83;15.75;;;14.10;99.90;;;;;;5055070;28;20198;-79
2022/10/14 10:14:31;;;;;;;21.70;14.53;;;14.20;99.90;;;;;;5054593;28;20536;-77
2022/10/14 10:17:18;;;;;;;16.77;12.47;;;14.20;99.90;;;;;;5053513;28;20256;-78
2022/10/14 10:19:47;;;;;;;19.73;13.30;;;14.30;99.90;;;;;;5054601;28;20198;-80
2022/10/14 10:22:26;;;;;;;18.90;13.00;;;14.30;99.90;;;;;;5053377;28;20225;-78
2022/10/14 10:25:25;;;;;;;15.73;11.90;;;14.30;99.90;;;;;;5054525;28;20201;-78
2022/10/14 10:27:53;;;;;;;16.75;11.75;;;14.30;99.90;;;;;;5054901;28;20190;-79
2022/10/14 10:30:24;;;;;;;17.00;11.48;;;14.30;99.90;;;;;;5055886;28;20214;-87
2022/10/14 10:33:09;;;;;;;16.13;11.52;;;14.40;99.90;;;;;;5055751;28;20221;-82
2022/10/14 10:35:55;;;;;;;20.17;12.88;;;14.40;99.90;;;;;;5054781;28;20262;-83
2022/10/14 10:38:29;;;;;;;15.23;11.30;;;14.50;99.90;;;;;;5055257;28;20198;-86
2022/10/14 10:41:11;;;;;;;12.32;9.73;;;14.50;99.90;;;;;;5055453;28;20213;-82
2022/10/14 10:43:49;;;;;;;14.68;10.68;;;14.60;99.90;;;;;;5054787;28;20192;-81
2022/10/14 10:46:30;;;;;;;15.13;10.63;;;14.60;99.90;;;;;;5055309;28;20582;-80
2022/10/14 10:49:03;;;;;;;11.60;8.95;;;14.70;99.90;;;;;;5055489;28;20652;-85
2022/10/14 10:51:39;;;;;;;13.95;10.38;;;14.70;99.90;;;;;;5070974;28;20201;-81
2022/10/14 10:54:22;;;;;;;13.88;10.20;;;14.80;99.90;;;;;;5075747;28;20303;-76
2022/10/14 10:56:53;;;;;;;11.52;8.35;;;14.80;99.90;;;;;;5073840;28;20243;-79
2022/10/14 10:59:34;;;;;;;12.30;9.30;;;14.80;99.90;;;;;;5060815;28;20206;-78
2022/10/14 11:02:32;;;;;;;11.80;8.90;;;14.90;99.90;;;;;;5053424;28;20206;-78
2022/10/14 11:05:06;;;;;;;15.15;8.65;;;14.90;99.90;;;;;;5052870;28;20479;-76
2022/10/14 11:13:41;;;;;;;8.63;7.72;;;14.90;99.90;;;;;;5050960;28;20261;-77
2022/10/14 11:16:13;;;;;;;13.57;8.90;;;15.00;99.90;;;;;;5052347;28;20423;-79
2022/10/14 11:18:47;;;;;;;12.05;8.90;;;15.00;99.90;;;;;;5052735;28;20587;-77
2022/10/14 11:21:21;;;;;;;9.80;7.88;;;15.00;99.90;;;;;;5052654;28;20622;-76
2022/10/14 11:23:58;;;;;;;9.55;8.30;;;15.10;99.90;;;;;;5053137;28;20857;-78
2022/10/14 11:27:00;;;;;;;7.97;6.85;;;15.20;99.90;;;;;;5054439;28;20209;-82
2022/10/14 11:29:41;;;;;;;9.60;7.70;;;15.20;99.90;;;;;;5062283;28;20209;-80
2022/10/14 11:32:18;;;;;;;8.52;6.95;;;15.20;99.90;;;;;;5074044;28;20526;-79
2022/10/14 11:34:53;;;;;;;8.40;6.85;;;15.30;99.90;;;;;;5069343;28;20193;-83
2022/10/14 11:37:28;;;;;;;7.93;6.68;;;15.30;99.90;;;;;;5062200;28;20199;-83
2022/10/14 11:39:58;;;;;;;8.40;6.53;;;15.30;99.90;;;;;;5068719;28;20207;-82
2022/10/14 11:42:37;;;;;;;6.53;5.93;;;15.30;99.90;;;;;;5076567;28;20569;-83
2022/10/14 11:45:24;;;;;;;7.30;6.60;;;15.40;99.90;;;;;;5075543;28;20201;-81
2022/10/14 11:47:54;;;;;;;6.07;5.50;;;15.40;99.90;;;;;;5073463;28;20621;-82
2022/10/14 11:50:25;;;;;;;5.68;5.18;;;15.50;99.90;;;;;;5074793;28;20194;-83
2022/10/14 11:53:00;;;;;;;5.80;5.30;;;15.50;99.90;;;;;;5073154;28;20196;-84
2022/10/14 11:55:30;;;;;;;4.50;4.10;;;15.60;99.90;;;;;;5075534;28;20188;-82
2022/10/14 11:58:03;;;;;;;4.18;3.83;;;15.70;99.90;;;;;;5054675;28;20201;-82
2022/10/14 12:00:32;;;;;;;4.55;4.10;;;15.80;99.90;;;;;;5057677;28;20201;-80
2022/10/14 12:03:15;;;;;;;4.25;3.80;;;15.90;99.90;;;;;;5067214;28;20548;-83
2022/10/14 12:05:47;;;;;;;6.03;5.22;;;16.00;99.90;;;;;;5059748;28;20711;-83
2022/10/14 12:08:22;;;;;;;7.55;5.88;;;16.10;99.90;;;;;;5068747;28;20201;-83
2022/10/14 12:10:55;;;;;;;7.85;7.15;;;16.20;99.90;;;;;;5053971;28;20248;-83
2022/10/14 12:13:31;;;;;;;7.57;6.88;;;16.30;99.90;;;;;;5054255;28;20500;-82
2022/10/14 12:16:00;;;;;;;10.55;9.45;;;16.40;99.90;;;;;;5053416;28;20193;-81
2022/10/14 12:18:29;;;;;;;10.45;9.45;;;16.50;99.90;;;;;;5064258;28;20207;-79
2022/10/14 12:21:04;;;;;;;8.68;7.75;;;16.50;99.90;;;;;;5071183;28;20212;-81
2022/10/14 12:23:37;;;;;;;10.25;9.15;;;16.50;99.90;;;;;;5069568;28;20784;-80
2022/10/14 12:26:11;;;;;;;10.15;9.23;;;16.50;99.90;;;;;;5071366;28;20204;-83
2022/10/14 12:28:41;;;;;;;14.27;9.90;;;16.50;99.90;;;;;;5069933;28;20203;-80
2022/10/14 12:31:21;;;;;;;12.35;8.95;;;16.50;99.90;;;;;;5072370;28;20283;-83
2022/10/14 12:34:17;;;;;;;9.75;7.88;;;16.50;99.90;;;;;;5086385;28;20239;-83
2022/10/14 12:36:45;;;;;;;10.85;7.35;;;16.60;99.90;;;;;;5043923;28;20213;-85
2022/10/14 12:39:22;;;;;;;10.15;7.25;;;16.60;99.90;;;;;;5058554;28;20284;-86
2022/10/14 12:41:53;;;;;;;9.07;6.85;;;16.60;99.90;;;;;;5073576;28;20294;-82
2022/10/14 12:44:23;;;;;;;7.78;5.57;;;16.60;99.90;;;;;;5064392;28;20194;-80
2022/10/14 12:46:52;;;;;;;7.35;5.72;;;16.70;99.90;;;;;;5053342;28;20319;-84
2022/10/14 12:49:27;;;;;;;10.02;5.35;;;16.70;99.90;;;;;;5053731;28;20216;-83
2022/10/14 12:51:55;;;;;;;7.25;6.10;;;16.70;99.90;;;;;;5053427;28;20201;-83
2022/10/14 12:54:22;;;;;;;9.63;6.80;;;16.70;99.90;;;;;;5053649;28;20201;-83